• +62 31 8667540

  • +62 31 8668989 (24 jam)

  • Stasiun Meteorologi Juanda

  • Bandar Udara Juanda - Sidoarjo

  • 08:00 - 16:00

  • Senin sampai Jumat

TAF TERAKHIR

TAF WARR 260500Z 2606/2706 10010KT 9999 SCT020
  BECMG 2606/2608 8000 SCT020CB
  PROB40
  TEMPO 2614/2617 02010KT 5000 RA SCT020CB
  BECMG 2617/2619 26005KT 6000 FEW020
  TEMPO 2621/2700 4000 HZ SCT020
  BECMG 2700/2702 10010KT 9999

Peringatan Dini Cuaca Hari Ini

Waspadai Hujan Intensitas Sedang-Lebat disertai Angin Kencang sesaat pada malam hari atau dini hari di wilayah : Sampang, pamekasan, Sumenep, Banyuwangi, Probolinggo, Lumajang, Bawean.